Time;durP1;ratioP1;P1;durP2;ratioP2;P2;SDS_P1;SDS_P2;PMS_P1;PMS_P2;Temp;Humidity;BMP_temperature;BMP_pressure;BME280_temperature;BME280_humidity;BME280_pressure;Samples;Min_cycle;Max_cycle;Signal;HPM_P1;HPM_P2
2021/12/20 00:01:47;;;;;;;32.72;2.88;;;6.30;99.90;;;;;;5097387;28;20066;-74
2021/12/20 00:04:13;;;;;;;33.85;2.33;;;6.30;99.90;;;;;;5116407;28;20476;-75
2021/12/20 00:06:39;;;;;;;33.58;2.80;;;6.40;99.90;;;;;;5097779;28;20044;-74
2021/12/20 00:09:05;;;;;;;31.42;2.45;;;6.40;99.90;;;;;;5114719;28;20446;-73
2021/12/20 00:11:31;;;;;;;38.03;2.47;;;6.30;99.90;;;;;;5114558;28;20047;-74
2021/12/20 00:13:57;;;;;;;30.00;3.05;;;6.40;99.90;;;;;;5097022;28;20063;-73
2021/12/20 00:16:23;;;;;;;32.72;2.78;;;6.40;99.90;;;;;;5097541;28;20079;-76
2021/12/20 00:18:49;;;;;;;23.70;2.22;;;6.30;99.90;;;;;;5097122;28;20050;-75
2021/12/20 00:21:14;;;;;;;31.73;3.15;;;6.40;99.90;;;;;;5097285;28;20050;-75
2021/12/20 00:23:40;;;;;;;28.73;3.42;;;6.30;99.90;;;;;;5097365;28;20036;-75
2021/12/20 00:26:08;;;;;;;27.17;2.10;;;6.30;99.90;;;;;;5097502;28;20039;-74
2021/12/20 00:28:35;;;;;;;31.48;2.70;;;6.30;99.90;;;;;;5097254;28;20043;-75
2021/12/20 00:31:01;;;;;;;36.00;2.90;;;6.20;99.90;;;;;;5081349;28;20478;-74
2021/12/20 00:33:33;;;;;;;24.38;2.05;;;6.30;99.90;;;;;;5115478;28;20035;-75
2021/12/20 00:36:03;;;;;;;23.20;2.08;;;6.20;99.90;;;;;;5099120;28;20081;-74
2021/12/20 00:41:14;;;;;;;32.45;2.80;;;6.10;99.90;;;;;;5097707;28;20087;-74
2021/12/20 00:43:40;;;;;;;31.92;2.42;;;6.10;99.90;;;;;;5115597;28;20082;-74
2021/12/20 00:46:05;;;;;;;32.40;3.03;;;6.10;99.90;;;;;;5115518;28;20035;-75
2021/12/20 00:48:32;;;;;;;34.85;2.95;;;6.10;99.90;;;;;;5093890;28;20151;-74
2021/12/20 00:50:57;;;;;;;27.38;2.85;;;6.10;99.90;;;;;;5095058;28;20047;-74
2021/12/20 00:53:23;;;;;;;33.40;2.53;;;6.10;99.90;;;;;;5077241;28;20518;-74
2021/12/20 00:55:49;;;;;;;39.38;3.50;;;6.10;99.90;;;;;;5077434;28;20570;-74
2021/12/20 00:58:15;;;;;;;37.42;5.20;;;6.10;99.90;;;;;;5094653;28;20044;-74
2021/12/20 01:00:44;;;;;;;25.88;2.55;;;6.20;99.90;;;;;;5094886;28;20043;-73
2021/12/20 01:03:11;;;;;;;27.45;3.20;;;6.20;99.90;;;;;;5093731;28;20086;-74
2021/12/20 01:05:38;;;;;;;28.27;2.50;;;6.20;99.90;;;;;;5095531;28;20392;-74
2021/12/20 01:08:06;;;;;;;28.75;2.60;;;6.20;99.90;;;;;;5095069;28;20358;-75
2021/12/20 01:10:34;;;;;;;36.35;3.40;;;6.10;99.90;;;;;;5094373;28;20054;-75
2021/12/20 01:13:01;;;;;;;32.70;3.35;;;6.20;99.90;;;;;;5094132;28;20484;-74
2021/12/20 01:15:46;;;;;;;41.58;3.47;;;6.20;99.90;;;;;;5077761;28;20052;-74
2021/12/20 01:18:12;;;;;;;27.25;2.60;;;6.20;99.90;;;;;;5093460;28;20087;-75
2021/12/20 01:20:41;;;;;;;30.48;3.00;;;6.20;99.90;;;;;;5076233;28;20078;-75
2021/12/20 01:23:07;;;;;;;30.50;2.78;;;6.20;99.90;;;;;;5093648;28;20058;-75
2021/12/20 01:25:33;;;;;;;23.42;1.80;;;6.10;99.90;;;;;;5075822;28;20135;-74
2021/12/20 01:27:59;;;;;;;27.65;2.83;;;6.20;99.90;;;;;;5093786;28;20399;-71
2021/12/20 01:30:26;;;;;;;33.00;2.88;;;6.20;99.90;;;;;;5093045;28;20040;-71
2021/12/20 01:32:52;;;;;;;;;;;6.20;99.90;;;;;;5094023;28;20109;-71
2021/12/20 01:35:18;;;;;;;27.90;1.45;;;6.20;99.90;;;;;;5094184;28;20031;-72
2021/12/20 01:37:45;;;;;;;32.20;3.00;;;6.20;99.90;;;;;;5093566;28;20123;-72
2021/12/20 01:40:14;;;;;;;29.98;2.95;;;6.20;99.90;;;;;;5092350;28;20087;-72
2021/12/20 01:42:41;;;;;;;34.55;4.88;;;6.20;99.90;;;;;;5093893;28;20052;-71
2021/12/20 01:45:17;;;;;;;37.22;3.42;;;6.20;99.90;;;;;;5092440;28;20055;-72
2021/12/20 01:47:47;;;;;;;26.13;2.30;;;6.20;99.90;;;;;;5103888;28;20056;-71
2021/12/20 01:50:22;;;;;;;31.95;3.53;;;6.20;99.90;;;;;;5095149;28;20138;-71
2021/12/20 01:52:48;;;;;;;21.48;2.10;;;6.20;99.90;;;;;;5114351;28;20417;-71
2021/12/20 01:55:18;;;;;;;28.25;2.30;;;6.20;99.90;;;;;;5113531;28;20040;-71
2021/12/20 01:57:45;;;;;;;31.75;3.90;;;6.20;99.90;;;;;;5114013;28;20122;-72
2021/12/20 02:00:18;;;;;;;30.55;2.72;;;6.10;99.90;;;;;;5094918;28;20047;-71
2021/12/20 02:02:44;;;;;;;31.23;2.92;;;6.20;99.90;;;;;;5114037;28;20071;-71
2021/12/20 02:05:19;;;;;;;29.05;2.10;;;6.20;99.90;;;;;;5113460;28;20050;-72
2021/12/20 02:10:14;;;;;;;37.58;2.95;;;6.10;99.90;;;;;;5112911;28;20043;-72
2021/12/20 02:12:40;;;;;;;28.65;2.92;;;6.20;99.90;;;;;;5128744;27;20471;-73
2021/12/20 02:15:07;;;;;;;31.52;3.05;;;6.20;99.90;;;;;;5112975;28;20119;-73
2021/12/20 02:17:32;;;;;;;24.80;3.27;;;6.10;99.90;;;;;;5095093;28;20051;-72
2021/12/20 02:20:00;;;;;;;19.50;1.60;;;6.20;99.90;;;;;;5095439;28;20821;-72
2021/12/20 02:22:26;;;;;;;25.25;2.08;;;6.10;99.90;;;;;;5113626;28;20059;-73
2021/12/20 02:24:51;;;;;;;32.40;2.30;;;6.10;99.90;;;;;;5094630;28;20036;-73
2021/12/20 02:27:17;;;;;;;25.92;2.47;;;6.10;99.90;;;;;;5112901;28;20098;-72
2021/12/20 02:29:59;;;;;;;23.75;2.08;;;6.10;99.90;;;;;;5128860;27;20054;-74
2021/12/20 02:37:56;;;;;;;26.80;2.42;;;6.10;99.90;;;;;;5113056;28;20059;-72
2021/12/20 02:40:22;;;;;;;;;;;6.10;99.90;;;;;;5113484;28;20097;-72
2021/12/20 02:42:51;;;;;;;23.38;2.13;;;6.10;99.90;;;;;;5112705;28;20140;-72
2021/12/20 02:45:17;;;;;;;28.13;2.65;;;6.10;99.90;;;;;;5112950;28;20047;-73
2021/12/20 02:47:45;;;;;;;29.25;2.55;;;6.10;99.90;;;;;;5112851;28;20063;-72
2021/12/20 02:50:12;;;;;;;31.02;2.45;;;6.10;99.90;;;;;;5113124;28;20050;-72
2021/12/20 02:52:39;;;;;;;23.27;1.50;;;6.10;99.90;;;;;;5094528;28;20083;-73
2021/12/20 02:55:07;;;;;;;22.02;1.60;;;6.00;99.90;;;;;;5094502;28;20051;-73
2021/12/20 02:57:34;;;;;;;19.63;1.92;;;6.00;99.90;;;;;;5112552;28;20066;-72
2021/12/20 03:00:00;;;;;;;21.65;2.45;;;6.00;99.90;;;;;;5112434;28;20104;-73
2021/12/20 03:02:26;;;;;;;25.13;1.95;;;5.90;99.90;;;;;;5077054;28;20157;-72
2021/12/20 03:04:51;;;;;;;23.75;1.67;;;5.90;99.90;;;;;;5112404;28;20036;-72
2021/12/20 03:07:25;;;;;;;24.45;1.70;;;5.90;99.90;;;;;;5094382;28;20035;-73
2021/12/20 03:09:57;;;;;;;15.27;1.92;;;5.90;99.90;;;;;;5128627;28;20177;-73
2021/12/20 03:12:27;;;;;;;16.13;1.08;;;5.90;99.90;;;;;;5113151;28;20087;-73
2021/12/20 03:15:00;;;;;;;26.20;2.00;;;5.90;99.90;;;;;;5112969;28;20040;-73
2021/12/20 03:17:25;;;;;;;19.52;1.75;;;5.90;99.90;;;;;;5112997;28;20051;-73
2021/12/20 03:19:51;;;;;;;25.25;2.08;;;5.90;99.90;;;;;;5094987;28;20044;-72
2021/12/20 03:22:17;;;;;;;30.38;3.20;;;5.90;99.90;;;;;;5113269;28;20085;-73
2021/12/20 03:24:43;;;;;;;27.38;1.90;;;5.90;99.90;;;;;;5132771;27;20044;-73
2021/12/20 03:27:09;;;;;;;22.98;1.95;;;5.90;99.90;;;;;;5116442;28;20040;-73
2021/12/20 03:29:34;;;;;;;19.48;1.52;;;5.90;99.90;;;;;;5098737;28;20036;-72
2021/12/20 03:32:00;;;;;;;18.13;1.40;;;5.90;99.90;;;;;;5097783;28;20047;-72
2021/12/20 03:34:26;;;;;;;19.60;1.27;;;5.90;99.90;;;;;;5116600;28;20062;-72
2021/12/20 03:36:51;;;;;;;23.95;1.23;;;6.00;99.90;;;;;;5097901;28;20079;-72
2021/12/20 03:39:18;;;;;;;17.05;1.25;;;5.90;99.90;;;;;;5116222;28;20044;-72
2021/12/20 03:41:43;;;;;;;20.38;1.77;;;5.90;99.90;;;;;;5116374;28;20086;-72
2021/12/20 03:44:09;;;;;;;18.95;1.98;;;6.00;99.90;;;;;;5081233;28;20436;-73
2021/12/20 03:46:35;;;;;;;33.53;5.03;;;5.90;99.90;;;;;;5115713;28;20126;-72
2021/12/20 03:49:03;;;;;;;20.43;1.83;;;5.80;99.90;;;;;;5115802;28;20055;-72
2021/12/20 03:51:28;;;;;;;19.38;1.20;;;5.90;99.90;;;;;;5115786;28;20107;-71
2021/12/20 03:53:54;;;;;;;14.57;1.00;;;5.90;99.90;;;;;;5097352;28;20134;-72
2021/12/20 03:56:20;;;;;;;23.10;1.00;;;5.80;99.90;;;;;;5115732;28;20039;-72
2021/12/20 03:58:46;;;;;;;15.50;1.55;;;5.80;99.90;;;;;;5115919;28;20418;-72
2021/12/20 04:01:12;;;;;;;19.67;1.75;;;5.80;99.90;;;;;;5097745;28;20043;-73
2021/12/20 04:03:39;;;;;;;14.13;1.02;;;5.70;99.90;;;;;;5116531;28;20111;-72
2021/12/20 04:06:08;;;;;;;11.90;0.75;;;5.70;99.90;;;;;;5116197;28;20079;-72
2021/12/20 04:08:35;;;;;;;15.85;1.10;;;5.60;99.90;;;;;;5116140;28;20043;-72
2021/12/20 04:11:01;;;;;;;7.38;0.60;;;5.50;99.90;;;;;;5115544;28;20134;-72
2021/12/20 04:13:27;;;;;;;14.10;1.20;;;5.40;99.90;;;;;;5115895;28;20505;-72
2021/12/20 04:15:56;;;;;;;21.02;1.50;;;5.30;99.90;;;;;;5115274;28;20369;-72
2021/12/20 04:18:23;;;;;;;10.23;0.77;;;5.30;99.90;;;;;;5115213;28;20050;-72
2021/12/20 04:20:49;;;;;;;;;;;5.30;99.90;;;;;;5115973;28;20043;-72
2021/12/20 04:23:15;;;;;;;11.38;1.20;;;5.20;99.90;;;;;;5114371;28;20316;-72
2021/12/20 04:25:41;;;;;;;14.05;0.75;;;5.10;99.90;;;;;;5115322;28;20134;-72
2021/12/20 04:28:07;;;;;;;13.20;1.13;;;5.10;99.90;;;;;;5115207;28;20039;-72
2021/12/20 04:30:33;;;;;;;15.75;1.20;;;5.00;99.90;;;;;;5115283;28;20104;-72
2021/12/20 04:32:59;;;;;;;12.30;0.85;;;5.00;99.90;;;;;;5115042;28;20047;-72
2021/12/20 04:35:25;;;;;;;10.73;0.93;;;4.90;99.90;;;;;;5114240;28;20075;-73
2021/12/20 04:37:52;;;;;;;14.15;0.90;;;4.90;99.90;;;;;;5131365;27;20044;-72
2021/12/20 04:40:21;;;;;;;11.75;0.93;;;4.90;99.90;;;;;;5096734;28;20048;-72
2021/12/20 04:42:49;;;;;;;15.23;1.00;;;4.80;99.90;;;;;;5115237;28;20043;-73
2021/12/20 04:45:15;;;;;;;18.10;1.52;;;4.70;99.90;;;;;;5096740;28;20050;-75
2021/12/20 04:47:41;;;;;;;10.57;0.93;;;4.70;99.90;;;;;;5115214;28;20052;-73
2021/12/20 04:50:08;;;;;;;19.00;1.60;;;4.60;99.90;;;;;;5096931;28;20130;-72
2021/12/20 04:52:34;;;;;;;15.52;1.33;;;4.50;99.90;;;;;;5097496;28;20417;-73
2021/12/20 04:54:59;;;;;;;15.88;1.23;;;4.60;99.90;;;;;;5096605;28;20047;-73
2021/12/20 04:57:25;;;;;;;25.35;1.92;;;4.50;99.90;;;;;;5114920;28;20051;-73
2021/12/20 04:59:51;;;;;;;15.52;1.55;;;4.40;99.90;;;;;;5114352;28;20131;-73
2021/12/20 05:02:17;;;;;;;12.38;1.48;;;4.40;99.90;;;;;;5114504;28;20050;-75
2021/12/20 05:04:42;;;;;;;23.42;1.35;;;4.40;99.90;;;;;;5114524;28;20051;-73
2021/12/20 05:07:09;;;;;;;19.92;1.00;;;4.40;99.90;;;;;;5114544;28;20040;-71
2021/12/20 05:09:39;;;;;;;16.33;1.60;;;4.30;99.90;;;;;;5114610;28;20044;-72
2021/12/20 05:12:14;;;;;;;21.95;1.55;;;4.30;99.90;;;;;;5113433;28;20131;-72
2021/12/20 05:14:42;;;;;;;12.05;1.40;;;4.30;99.90;;;;;;5114504;28;20051;-71
2021/12/20 05:17:10;;;;;;;22.42;2.50;;;4.20;99.90;;;;;;5130591;27;20509;-72
2021/12/20 05:19:36;;;;;;;;;;;4.20;99.90;;;;;;5097224;28;20059;-71
2021/12/20 05:22:01;;;;;;;19.67;2.20;;;4.20;99.90;;;;;;5129792;27;19923;-71
2021/12/20 05:24:27;;;;;;;21.27;2.63;;;4.20;99.90;;;;;;5095871;28;20107;-71
2021/12/20 05:26:53;;;;;;;27.50;2.20;;;4.20;99.90;;;;;;5114383;28;20432;-71
2021/12/20 05:29:19;;;;;;;16.60;2.60;;;4.10;99.90;;;;;;5114006;28;20472;-71
2021/12/20 05:31:45;;;;;;;14.77;2.47;;;4.00;99.90;;;;;;5130320;27;20130;-71
2021/12/20 05:34:11;;;;;;;16.83;1.65;;;4.00;99.90;;;;;;5113923;28;20454;-72
2021/12/20 05:36:36;;;;;;;10.63;1.40;;;3.90;99.90;;;;;;5113717;28;20075;-72
2021/12/20 05:39:03;;;;;;;11.13;1.55;;;3.80;99.90;;;;;;5078637;28;20052;-72
2021/12/20 05:41:30;;;;;;;11.43;1.13;;;3.70;99.90;;;;;;5129992;27;20035;-72
2021/12/20 05:43:55;;;;;;;22.87;2.43;;;3.70;99.90;;;;;;5113522;28;20055;-72
2021/12/20 05:46:21;;;;;;;13.13;1.90;;;3.50;99.90;;;;;;5113750;28;20456;-74
2021/12/20 05:48:47;;;;;;;10.60;1.23;;;3.50;99.90;;;;;;5114419;28;20059;-72
2021/12/20 05:51:13;;;;;;;14.05;2.55;;;3.50;99.90;;;;;;5113905;28;20083;-72
2021/12/20 05:53:39;;;;;;;14.40;1.30;;;3.30;99.90;;;;;;5113708;28;20076;-71
2021/12/20 05:56:05;;;;;;;16.27;1.55;;;3.30;99.90;;;;;;5095499;28;20044;-72
2021/12/20 05:58:30;;;;;;;17.38;1.55;;;3.20;99.90;;;;;;5113423;28;20051;-72
2021/12/20 06:00:56;;;;;;;17.05;1.48;;;3.10;99.90;;;;;;5113603;28;20051;-72
2021/12/20 06:03:22;;;;;;;14.13;1.75;;;3.00;99.90;;;;;;5113447;28;20074;-72
2021/12/20 06:05:48;;;;;;;19.45;1.17;;;3.00;99.90;;;;;;5078099;28;20111;-72
2021/12/20 06:08:13;;;;;;;8.77;1.15;;;2.90;99.90;;;;;;5095292;28;20044;-72
2021/12/20 06:10:39;;;;;;;15.05;1.60;;;2.90;99.90;;;;;;5094959;28;20436;-72
2021/12/20 06:13:05;;;;;;;16.00;1.45;;;2.80;99.90;;;;;;5113139;28;20372;-73
2021/12/20 06:15:32;;;;;;;12.75;1.30;;;2.80;99.90;;;;;;5078421;28;20052;-70
2021/12/20 06:17:58;;;;;;;13.80;2.55;;;2.80;99.90;;;;;;5095135;28;20054;-71
2021/12/20 06:20:24;;;;;;;15.80;1.48;;;2.70;99.90;;;;;;5113251;28;20457;-72
2021/12/20 06:22:50;;;;;;;14.18;1.95;;;2.60;99.90;;;;;;5094800;28;20057;-72
2021/12/20 06:25:16;;;;;;;18.45;2.72;;;2.60;99.90;;;;;;5094920;28;20044;-72
2021/12/20 06:27:42;;;;;;;15.00;1.50;;;2.40;99.90;;;;;;5113491;28;20126;-72
2021/12/20 06:30:09;;;;;;;11.27;1.50;;;2.50;99.90;;;;;;5094962;28;20040;-71
2021/12/20 06:32:38;;;;;;;20.27;2.15;;;2.40;99.90;;;;;;5112677;28;20055;-71
2021/12/20 06:35:05;;;;;;;18.45;1.60;;;2.40;99.90;;;;;;5112996;28;20043;-72
2021/12/20 06:37:32;;;;;;;;;;;2.30;99.90;;;;;;5095294;28;20047;-72
2021/12/20 06:39:58;;;;;;;12.32;1.48;;;2.20;99.90;;;;;;5077934;28;19926;-72
2021/12/20 06:42:23;;;;;;;18.85;1.88;;;2.20;99.90;;;;;;5113044;28;20463;-72
2021/12/20 06:44:49;;;;;;;14.40;1.63;;;2.20;99.90;;;;;;5094071;28;20079;-71
2021/12/20 06:47:16;;;;;;;18.10;2.00;;;2.20;99.90;;;;;;5094655;28;20134;-71
2021/12/20 06:49:42;;;;;;;16.25;1.83;;;2.10;99.90;;;;;;5113116;28;20059;-72
2021/12/20 06:52:08;;;;;;;9.90;1.60;;;2.10;99.90;;;;;;5112406;28;20414;-71
2021/12/20 06:54:34;;;;;;;12.18;1.42;;;2.00;99.90;;;;;;5077744;28;20078;-71
2021/12/20 06:57:00;;;;;;;17.95;2.53;;;2.00;99.90;;;;;;5094028;28;20060;-72
2021/12/20 06:59:26;;;;;;;13.10;1.67;;;2.00;99.90;;;;;;5112716;28;20040;-72
2021/12/20 07:01:51;;;;;;;16.92;1.45;;;1.90;99.90;;;;;;5112801;28;20433;-72
2021/12/20 07:04:17;;;;;;;18.67;1.95;;;1.90;99.90;;;;;;5094146;28;20506;-72
2021/12/20 07:06:43;;;;;;;21.10;2.03;;;1.90;99.90;;;;;;5112549;28;20361;-72
2021/12/20 07:09:09;;;;;;;15.45;2.17;;;1.80;99.90;;;;;;5112502;28;20087;-72
2021/12/20 07:11:35;;;;;;;19.75;2.28;;;1.80;99.90;;;;;;5112282;28;20055;-72
2021/12/20 07:14:01;;;;;;;23.63;1.75;;;1.70;99.90;;;;;;5112712;28;20078;-72
2021/12/20 07:16:33;;;;;;;15.32;1.67;;;1.70;99.90;;;;;;5094477;28;20048;-72
2021/12/20 07:18:59;;;;;;;17.63;1.63;;;1.70;99.90;;;;;;5094952;28;20043;-72
2021/12/20 07:21:25;;;;;;;20.38;2.13;;;1.70;99.90;;;;;;5112503;28;20094;-73
2021/12/20 07:23:50;;;;;;;17.40;1.70;;;1.60;99.90;;;;;;5094116;28;20071;-72
2021/12/20 07:26:16;;;;;;;16.73;1.92;;;1.60;99.90;;;;;;5112921;28;20412;-72
2021/12/20 07:28:43;;;;;;;24.85;1.88;;;1.60;99.90;;;;;;5077794;28;20344;-72
2021/12/20 07:31:13;;;;;;;18.70;2.17;;;1.50;99.90;;;;;;5111177;28;20130;-72
2021/12/20 07:33:40;;;;;;;14.60;2.17;;;1.60;99.90;;;;;;5112728;28;20047;-72
2021/12/20 07:36:06;;;;;;;19.35;2.65;;;1.50;99.90;;;;;;5093981;28;20147;-74
2021/12/20 07:38:34;;;;;;;18.83;1.70;;;1.50;99.90;;;;;;5112491;28;20461;-72
2021/12/20 07:41:01;;;;;;;18.40;1.80;;;1.40;99.90;;;;;;5077578;28;20116;-73
2021/12/20 07:43:26;;;;;;;14.93;2.10;;;1.40;99.90;;;;;;5093712;28;20446;-73
2021/12/20 07:45:52;;;;;;;15.10;1.85;;;1.40;99.90;;;;;;5077147;28;20108;-73
2021/12/20 07:48:20;;;;;;;14.27;1.58;;;1.40;99.90;;;;;;5113127;28;20490;-73
2021/12/20 07:50:47;;;;;;;19.00;2.25;;;1.40;99.90;;;;;;5094133;28;20075;-73
2021/12/20 07:53:13;;;;;;;14.73;2.20;;;1.40;99.90;;;;;;5112563;28;20047;-73
2021/12/20 07:55:39;;;;;;;20.83;2.90;;;1.40;99.90;;;;;;5112043;28;20043;-74
2021/12/20 07:58:06;;;;;;;21.67;3.00;;;1.30;99.90;;;;;;5077221;28;20051;-73
2021/12/20 08:00:32;;;;;;;17.93;2.50;;;1.30;99.90;;;;;;5077303;28;20159;-73
2021/12/20 08:02:58;;;;;;;24.70;4.83;;;1.30;99.90;;;;;;5112634;28;20281;-74
2021/12/20 08:05:25;;;;;;;22.17;4.03;;;1.30;99.90;;;;;;5112378;28;20455;-74
2021/12/20 08:07:52;;;;;;;21.70;4.07;;;1.30;99.90;;;;;;5093940;28;20040;-72
2021/12/20 08:10:20;;;;;;;28.85;4.15;;;1.30;99.90;;;;;;5099505;28;20050;-75
2021/12/20 08:12:47;;;;;;;18.48;3.70;;;1.30;99.90;;;;;;5118927;27;20036;-72
2021/12/20 08:15:14;;;;;;;20.20;3.97;;;1.30;99.90;;;;;;5084753;28;20467;-72
2021/12/20 08:17:40;;;;;;;25.65;4.60;;;1.40;99.90;;;;;;5100047;28;20100;-73
2021/12/20 08:20:08;;;;;;;20.37;4.27;;;1.40;99.90;;;;;;5117568;28;20546;-73
2021/12/20 08:22:34;;;;;;;27.13;5.22;;;1.40;99.90;;;;;;5116427;28;20749;-73
2021/12/20 08:25:00;;;;;;;23.25;4.85;;;1.40;99.90;;;;;;5116896;28;20051;-72
2021/12/20 08:27:26;;;;;;;15.60;4.30;;;1.40;99.90;;;;;;5115940;28;20074;-73
2021/12/20 08:29:52;;;;;;;26.92;4.35;;;1.40;99.90;;;;;;5098051;28;20051;-73
2021/12/20 08:32:23;;;;;;;27.40;5.15;;;1.40;99.90;;;;;;5083618;28;20344;-72
2021/12/20 08:34:49;;;;;;;16.52;4.72;;;1.40;99.90;;;;;;5116417;28;20051;-73
2021/12/20 08:37:15;;;;;;;19.60;3.60;;;1.50;99.90;;;;;;5097528;28;20044;-74
2021/12/20 08:39:40;;;;;;;31.50;4.22;;;1.50;99.90;;;;;;5097510;28;20370;-73
2021/12/20 08:42:07;;;;;;;27.95;4.60;;;1.50;99.90;;;;;;5080523;28;20047;-73
2021/12/20 08:44:33;;;;;;;22.83;5.75;;;1.60;99.90;;;;;;5097841;28;20066;-71
2021/12/20 08:47:00;;;;;;;36.95;8.40;;;1.60;99.90;;;;;;5097268;28;20357;-73
2021/12/20 08:49:27;;;;;;;43.92;14.10;;;1.60;99.90;;;;;;5096594;28;20039;-72
2021/12/20 08:51:54;;;;;;;43.60;15.60;;;1.70;99.90;;;;;;5115169;28;20053;-73
2021/12/20 08:54:20;;;;;;;33.85;12.60;;;1.70;99.90;;;;;;5114756;28;20044;-73
2021/12/20 08:56:46;;;;;;;40.08;10.23;;;1.70;99.90;;;;;;5115496;28;20521;-74
2021/12/20 08:59:12;;;;;;;30.60;10.18;;;1.70;99.90;;;;;;5115040;28;20364;-72
2021/12/20 09:01:38;;;;;;;37.95;10.05;;;1.80;99.90;;;;;;5114583;28;20075;-71
2021/12/20 09:04:06;;;;;;;35.10;10.23;;;1.80;99.90;;;;;;5079733;28;20075;-72
2021/12/20 09:06:34;;;;;;;28.75;9.32;;;1.90;99.90;;;;;;5115425;28;20111;-72
2021/12/20 09:09:00;;;;;;;24.52;7.10;;;1.90;99.90;;;;;;5114785;28;20048;-72
2021/12/20 09:11:27;;;;;;;30.55;8.50;;;1.90;99.90;;;;;;5114660;28;20443;-72
2021/12/20 09:13:53;;;;;;;29.17;5.25;;;2.00;99.90;;;;;;5114182;28;20043;-71
2021/12/20 09:16:19;;;;;;;21.92;4.45;;;2.10;99.90;;;;;;5115184;28;20088;-72
2021/12/20 09:18:45;;;;;;;28.08;5.20;;;2.10;99.90;;;;;;5096935;28;20047;-74
2021/12/20 09:21:11;;;;;;;29.25;5.55;;;2.10;99.90;;;;;;5114293;28;20119;-72
2021/12/20 09:23:38;;;;;;;39.07;5.17;;;2.20;99.90;;;;;;5097062;28;20052;-73
2021/12/20 09:26:04;;;;;;;31.20;4.47;;;2.20;99.90;;;;;;5079572;28;20101;-72
2021/12/20 09:28:30;;;;;;;30.48;6.95;;;2.30;99.90;;;;;;5096200;28;20105;-72
2021/12/20 09:30:56;;;;;;;45.25;13.30;;;2.30;99.90;;;;;;5114355;28;20492;-72
2021/12/20 09:33:22;;;;;;;33.63;7.50;;;2.30;99.90;;;;;;5114463;28;20097;-71
2021/12/20 09:35:50;;;;;;;36.05;7.32;;;2.40;99.90;;;;;;5079532;28;20130;-75
2021/12/20 09:38:18;;;;;;;39.35;6.78;;;2.50;99.90;;;;;;5096401;28;20059;-72
2021/12/20 09:41:12;;;;;;;34.70;6.38;;;2.60;99.90;;;;;;5114537;28;20048;-73
2021/12/20 09:43:32;;;;;;;28.92;6.32;;;2.60;99.90;;;;;;5114456;28;20371;-72
2021/12/20 09:45:58;;;;;;;37.42;6.10;;;2.70;99.90;;;;;;5114228;28;20043;-73
2021/12/20 09:48:24;;;;;;;32.30;5.28;;;2.80;99.90;;;;;;5114007;28;20116;-72
2021/12/20 09:50:50;;;;;;;36.38;5.10;;;2.70;99.90;;;;;;5113048;28;20044;-74
2021/12/20 09:53:16;;;;;;;32.53;5.15;;;2.80;99.90;;;;;;5113404;28;20036;-71
2021/12/20 09:55:47;;;;;;;34.88;5.85;;;2.90;99.90;;;;;;5114116;28;20046;-71
2021/12/20 09:58:13;;;;;;;52.78;5.95;;;2.90;99.90;;;;;;5113998;28;20047;-72
2021/12/20 10:00:39;;;;;;;35.80;4.65;;;3.00;99.90;;;;;;5114110;28;20058;-71
2021/12/20 10:03:05;;;;;;;36.50;5.75;;;3.00;99.90;;;;;;5095380;28;20050;-72
2021/12/20 10:05:32;;;;;;;43.50;5.13;;;3.10;99.90;;;;;;5096309;28;20044;-72
2021/12/20 10:07:58;;;;;;;43.42;6.20;;;3.10;99.90;;;;;;5062474;28;20043;-72
2021/12/20 10:10:39;;;;;;;29.73;4.50;;;3.10;99.90;;;;;;5113992;28;20048;-72
2021/12/20 10:13:05;;;;;;;26.50;3.80;;;3.20;99.90;;;;;;5114206;28;20417;-72
2021/12/20 10:15:37;;;;;;;30.15;4.25;;;3.20;99.90;;;;;;5095523;28;20035;-72
2021/12/20 10:18:05;;;;;;;36.90;4.10;;;3.30;99.90;;;;;;5114070;28;20080;-73
2021/12/20 10:20:35;;;;;;;29.48;4.53;;;3.30;99.90;;;;;;5096183;28;20080;-72
2021/12/20 10:23:15;;;;;;;29.50;5.32;;;3.30;99.90;;;;;;5129943;27;20047;-72
2021/12/20 10:25:43;;;;;;;34.72;6.45;;;3.30;99.90;;;;;;5114692;28;20050;-72
2021/12/20 10:28:14;;;;;;;32.83;6.10;;;3.30;99.90;;;;;;5130589;27;20055;-73
2021/12/20 10:30:52;;;;;;;28.45;6.70;;;3.40;99.90;;;;;;5081128;28;20135;-72
2021/12/20 10:33:21;;;;;;;27.83;4.35;;;3.40;99.90;;;;;;5122308;28;20123;-72
2021/12/20 10:35:53;;;;;;;29.25;4.70;;;3.50;99.90;;;;;;5119385;28;20378;-72
2021/12/20 10:38:22;;;;;;;25.65;4.40;;;3.60;99.90;;;;;;5116870;28;20051;-72
2021/12/20 10:41:00;;;;;;;29.25;4.30;;;3.60;99.90;;;;;;5115736;28;20235;-73
2021/12/20 10:43:31;;;;;;;23.80;4.15;;;3.60;99.90;;;;;;5132093;27;20047;-73
2021/12/20 10:45:58;;;;;;;27.45;4.65;;;3.60;99.90;;;;;;5083404;28;20052;-73
2021/12/20 10:48:31;;;;;;;28.70;4.45;;;3.70;99.90;;;;;;5118066;28;20065;-72
2021/12/20 10:50:57;;;;;;;31.45;4.50;;;3.70;99.90;;;;;;5100601;28;20340;-74
2021/12/20 10:53:25;;;;;;;27.67;3.85;;;3.80;99.90;;;;;;5099448;28;20498;-71
2021/12/20 10:55:54;;;;;;;26.35;4.20;;;3.80;99.90;;;;;;5115833;28;20051;-71
2021/12/20 10:58:29;;;;;;;23.65;3.90;;;3.90;99.90;;;;;;5117328;28;20044;-71
2021/12/20 11:01:18;;;;;;;20.23;3.42;;;3.90;99.90;;;;;;5118817;28;20073;-71
2021/12/20 11:03:54;;;;;;;20.52;3.90;;;3.90;99.90;;;;;;5116130;28;20040;-72
2021/12/20 11:09:05;;;;;;;24.92;2.90;;;4.00;99.90;;;;;;5114364;28;20059;-72
2021/12/20 11:11:40;;;;;;;16.67;2.30;;;4.10;99.90;;;;;;5094906;28;20078;-71
2021/12/20 11:14:08;;;;;;;18.23;2.80;;;4.00;99.90;;;;;;5128981;28;20047;-72
2021/12/20 11:16:43;;;;;;;14.77;2.15;;;4.10;99.90;;;;;;5113031;28;20047;-71
2021/12/20 11:19:12;;;;;;;13.95;2.05;;;4.20;99.90;;;;;;5094646;28;20051;-72
2021/12/20 11:21:46;;;;;;;10.98;1.42;;;4.30;99.90;;;;;;5094814;28;20039;-72
2021/12/20 11:24:15;;;;;;;18.95;1.58;;;4.30;99.90;;;;;;5093874;28;20055;-72
2021/12/20 11:26:42;;;;;;;11.63;1.63;;;4.30;99.90;;;;;;5129356;28;20047;-72
2021/12/20 11:29:09;;;;;;;22.07;1.80;;;4.40;99.90;;;;;;5128526;28;20467;-72
2021/12/20 11:31:37;;;;;;;;;;;4.50;99.90;;;;;;5129574;28;20670;-73
2021/12/20 11:34:03;;;;;;;15.20;1.60;;;4.60;99.90;;;;;;5128279;28;19923;-72
2021/12/20 11:36:29;;;;;;;7.77;0.97;;;4.50;99.90;;;;;;5079123;28;20058;-71
2021/12/20 11:38:58;;;;;;;9.23;1.23;;;4.60;99.90;;;;;;5114236;28;20308;-71
2021/12/20 11:41:28;;;;;;;15.10;1.83;;;4.60;99.90;;;;;;5112870;28;20048;-72
2021/12/20 11:43:56;;;;;;;12.90;0.82;;;4.60;99.90;;;;;;5097427;28;20552;-72
2021/12/20 11:46:41;;;;;;;9.73;1.40;;;4.70;99.90;;;;;;5100050;28;20062;-72
2021/12/20 11:49:07;;;;;;;9.38;1.02;;;4.70;99.90;;;;;;5119119;28;20063;-74
2021/12/20 11:51:55;;;;;;;9.73;1.25;;;4.80;99.90;;;;;;5117669;28;20123;-74
2021/12/20 11:54:52;;;;;;;7.72;1.27;;;4.70;99.90;;;;;;5117401;28;20051;-73
2021/12/20 11:57:33;;;;;;;13.90;1.17;;;4.80;99.90;;;;;;5099956;28;20063;-73
2021/12/20 12:00:07;;;;;;;31.75;12.07;;;4.80;99.90;;;;;;5134228;27;20344;-74
2021/12/20 12:02:40;;;;;;;18.02;5.15;;;4.80;99.90;;;;;;5099103;28;20080;-73
2021/12/20 12:05:09;;;;;;;6.90;0.80;;;4.80;99.90;;;;;;5116882;28;20044;-76
2021/12/20 12:07:37;;;;;;;13.55;2.83;;;4.90;99.90;;;;;;5117014;28;20055;-75
2021/12/20 12:10:06;;;;;;;9.38;0.98;;;4.90;99.90;;;;;;5098909;28;20055;-76
2021/12/20 12:12:38;;;;;;;9.13;1.08;;;4.90;99.90;;;;;;5133360;27;20055;-71
2021/12/20 12:15:14;;;;;;;11.93;2.72;;;4.90;99.90;;;;;;5099245;28;20483;-73
2021/12/20 12:17:53;;;;;;;7.03;0.90;;;4.90;99.90;;;;;;5115970;28;20116;-72
2021/12/20 12:20:48;;;;;;;9.70;0.70;;;4.90;99.90;;;;;;5131626;27;20051;-74
2021/12/20 12:23:23;;;;;;;6.90;0.60;;;4.90;99.90;;;;;;5115723;28;20059;-74
2021/12/20 12:26:02;;;;;;;5.28;0.50;;;4.90;99.90;;;;;;5081387;28;20104;-74
2021/12/20 12:28:52;;;;;;;3.28;0.40;;;4.90;99.90;;;;;;5132560;27;20377;-74
2021/12/20 12:31:18;;;;;;;5.95;0.60;;;4.90;99.90;;;;;;5097666;28;20048;-74
2021/12/20 12:33:45;;;;;;;3.28;0.32;;;5.00;99.90;;;;;;5097796;28;20047;-75
2021/12/20 12:36:28;;;;;;;4.75;0.52;;;5.00;99.90;;;;;;5097576;28;20388;-74
2021/12/20 12:39:00;;;;;;;4.45;0.50;;;5.00;99.90;;;;;;5115673;28;20051;-73
2021/12/20 12:41:32;;;;;;;1.92;0.30;;;5.00;99.90;;;;;;5080588;28;20074;-73
2021/12/20 12:44:24;;;;;;;3.10;0.40;;;5.00;99.90;;;;;;5115338;28;20063;-74
2021/12/20 12:47:05;;;;;;;3.55;0.30;;;5.20;96.30;;;;;;5116551;28;20487;-74
2021/12/20 12:49:39;;;;;;;6.38;0.85;;;5.20;99.90;;;;;;5116178;28;20074;-73
2021/12/20 12:52:17;;;;;;;4.30;0.50;;;5.20;99.90;;;;;;5097355;28;20084;-75
2021/12/20 12:54:55;;;;;;;3.83;0.50;;;5.20;99.90;;;;;;5114508;28;20126;-76
2021/12/20 12:57:20;;;;;;;3.83;0.40;;;5.10;99.90;;;;;;5115460;28;20050;-73
2021/12/20 12:59:57;;;;;;;3.38;0.32;;;5.10;99.90;;;;;;5115252;28;20122;-74
2021/12/20 13:02:29;;;;;;;7.15;0.30;;;5.10;99.90;;;;;;5132616;27;20052;-74
2021/12/20 13:04:56;;;;;;;5.43;0.40;;;5.10;99.90;;;;;;5097139;28;20044;-74
2021/12/20 13:07:47;;;;;;;8.32;0.90;;;5.10;99.90;;;;;;5130527;27;20130;-73
2021/12/20 13:10:38;;;;;;;5.78;0.40;;;5.00;99.90;;;;;;5086652;28;20055;-73